createdAt,value
2019-05-20T00:03:53.832Z,12.10
2019-05-20T00:08:59.724Z,11.90
2019-05-20T00:14:05.181Z,12.20
2019-05-20T00:19:10.727Z,12.40
2019-05-20T00:24:16.374Z,12.40
2019-05-20T00:29:22.143Z,12.40
2019-05-20T00:34:35.219Z,12.50
2019-05-20T00:39:34.732Z,12.50
2019-05-20T00:44:40.798Z,12.50
2019-05-20T00:49:46.678Z,12.50
2019-05-20T00:54:52.099Z,12.40
2019-05-20T00:59:57.543Z,12.30
2019-05-20T01:05:03.145Z,12.40
2019-05-20T01:10:09.241Z,12.50
2019-05-20T01:15:15.164Z,12.50
2019-05-20T01:20:21.076Z,12.50
2019-05-20T01:25:26.656Z,12.50
2019-05-20T01:30:32.115Z,12.40
2019-05-20T01:35:37.504Z,12.20
2019-05-20T01:40:43.052Z,12.20
2019-05-20T01:45:48.543Z,12.20
2019-05-20T01:50:54.149Z,12.10
2019-05-20T01:55:59.589Z,12.00
2019-05-20T02:01:05.183Z,11.90
2019-05-20T02:06:10.626Z,11.90
2019-05-20T02:11:16.008Z,11.80
2019-05-20T02:16:21.612Z,11.70
2019-05-20T02:21:27.076Z,11.60
2019-05-20T02:26:32.576Z,11.50
2019-05-20T02:31:37.999Z,11.40
2019-05-20T02:36:43.398Z,11.40
2019-05-20T02:41:48.858Z,11.40
2019-05-20T02:46:54.352Z,11.30
2019-05-20T02:51:59.833Z,11.20
2019-05-20T02:57:05.223Z,11.10
2019-05-20T03:02:11.204Z,11.10
2019-05-20T03:07:16.697Z,11.00
2019-05-20T03:12:22.197Z,10.90
2019-05-20T03:17:27.775Z,10.90
2019-05-20T03:22:33.435Z,10.80
2019-05-20T03:27:38.865Z,10.80
2019-05-20T03:32:44.241Z,10.70
2019-05-20T03:37:49.814Z,10.90
2019-05-20T03:42:55.427Z,11.00
2019-05-20T03:48:00.891Z,11.20
2019-05-20T03:53:06.601Z,11.50
2019-05-20T03:58:13.684Z,11.90
2019-05-20T04:03:19.244Z,11.80
2019-05-20T04:08:24.616Z,11.70
2019-05-20T04:13:34.291Z,11.90
2019-05-20T04:18:37.316Z,12.00
2019-05-20T04:23:42.899Z,11.90
2019-05-20T04:28:48.457Z,11.80
2019-05-20T04:33:53.890Z,11.90
2019-05-20T04:38:59.350Z,12.00
2019-05-20T04:44:04.847Z,11.90
2019-05-20T04:49:10.474Z,12.00
2019-05-20T04:54:15.873Z,11.90
2019-05-20T04:59:21.296Z,12.00
2019-05-20T05:04:27.811Z,12.00
2019-05-20T05:09:33.879Z,12.00
2019-05-20T05:14:39.443Z,12.10
2019-05-20T05:19:44.891Z,12.10
2019-05-20T05:24:50.555Z,12.00
2019-05-20T05:29:57.552Z,12.20
2019-05-20T05:35:02.951Z,12.30
2019-05-20T05:40:08.777Z,12.40
2019-05-20T05:45:19.234Z,12.40
2019-05-20T05:50:24.561Z,12.60
2019-05-20T05:55:30.029Z,12.70
2019-05-20T06:00:35.606Z,12.80
2019-05-20T06:05:41.072Z,12.90
2019-05-20T06:10:46.463Z,12.90
2019-05-20T06:15:54.589Z,12.90
2019-05-20T06:20:59.349Z,13.00
2019-05-20T06:26:05.248Z,13.20
2019-05-20T06:31:10.825Z,13.30
2019-05-20T06:36:26.559Z,13.50
2019-05-20T06:41:24.270Z,13.60
2019-05-20T06:46:29.911Z,13.70
2019-05-20T06:51:36.544Z,13.90
2019-05-20T06:56:42.169Z,14.10
2019-05-20T07:01:47.565Z,14.20
2019-05-20T07:06:53.390Z,14.30
2019-05-20T07:11:58.772Z,14.50
2019-05-20T07:17:04.272Z,14.60
2019-05-20T07:22:09.874Z,14.70
2019-05-20T07:27:15.428Z,14.70
2019-05-20T07:32:21.295Z,15.00
2019-05-20T07:37:28.012Z,15.20
2019-05-20T07:42:33.477Z,15.30
2019-05-20T07:47:39.323Z,15.50
2019-05-20T07:52:44.986Z,15.50
2019-05-20T07:57:52.719Z,15.70
2019-05-20T08:02:58.730Z,15.90
2019-05-20T08:08:04.163Z,16.00
2019-05-20T08:13:09.584Z,16.20
2019-05-20T08:18:15.023Z,16.40
2019-05-20T08:23:20.489Z,16.40
2019-05-20T08:28:26.096Z,16.50
2019-05-20T08:33:31.721Z,16.70
2019-05-20T08:38:40.794Z,16.90
2019-05-20T08:43:46.703Z,17.20
2019-05-20T08:48:52.050Z,17.40
2019-05-20T08:53:57.509Z,17.50
2019-05-20T08:59:03.037Z,17.60
2019-05-20T09:04:08.419Z,17.80
2019-05-20T09:09:16.218Z,17.80
2019-05-20T09:14:21.648Z,18.20
2019-05-20T09:19:27.119Z,18.40
2019-05-20T09:24:32.866Z,18.40
2019-05-20T09:29:38.319Z,18.50
2019-05-20T09:34:44.212Z,18.60
2019-05-20T09:39:49.778Z,18.60
2019-05-20T09:44:56.056Z,18.50
2019-05-20T09:50:01.799Z,18.60
2019-05-20T09:55:08.536Z,19.10
2019-05-20T10:00:14.193Z,19.30
2019-05-20T10:05:19.812Z,19.30
2019-05-20T10:10:25.773Z,19.50
2019-05-20T10:15:31.270Z,19.60
2019-05-20T10:20:48.512Z,19.70
2019-05-20T10:25:54.192Z,19.70
2019-05-20T10:30:59.751Z,20.00
2019-05-20T10:36:05.272Z,20.00
2019-05-20T10:41:13.501Z,20.20
2019-05-20T10:46:18.978Z,20.20
2019-05-20T10:51:24.790Z,20.20
2019-05-20T10:56:30.412Z,20.40
2019-05-20T11:01:36.104Z,20.50
2019-05-20T11:06:41.745Z,20.60
2019-05-20T11:11:48.005Z,20.80
2019-05-20T11:16:53.690Z,21.40
2019-05-20T11:21:59.281Z,22.00
2019-05-20T11:27:05.190Z,22.70
2019-05-20T11:32:10.692Z,23.20
2019-05-20T11:37:16.076Z,23.20
2019-05-20T11:42:21.903Z,23.20
2019-05-20T11:47:27.447Z,23.30
2019-05-20T11:52:32.950Z,23.50
2019-05-20T11:57:38.475Z,23.80
2019-05-20T12:02:43.896Z,23.90
2019-05-20T12:07:49.643Z,23.80
2019-05-20T12:12:55.060Z,23.80
2019-05-20T12:18:00.524Z,24.60
2019-05-20T12:23:07.080Z,24.60
2019-05-20T12:28:12.630Z,25.00
2019-05-20T12:33:19.522Z,25.20
2019-05-20T12:38:26.371Z,25.20
2019-05-20T12:43:31.777Z,25.00
2019-05-20T12:48:37.413Z,24.30
2019-05-20T12:53:42.840Z,23.60
2019-05-20T12:58:48.506Z,24.80
2019-05-20T13:03:53.923Z,25.10
2019-05-20T13:08:59.388Z,25.30
2019-05-20T13:14:05.014Z,25.80
2019-05-20T13:19:10.607Z,25.40
2019-05-20T13:24:16.036Z,25.70
2019-05-20T13:29:21.719Z,25.60
2019-05-20T13:34:28.597Z,25.50
2019-05-20T13:39:34.187Z,25.20
2019-05-20T13:44:39.616Z,25.40
2019-05-20T13:49:45.376Z,25.20
2019-05-20T13:54:50.819Z,24.60
2019-05-20T13:59:56.280Z,25.40
2019-05-20T14:05:01.608Z,25.80
2019-05-20T14:10:07.400Z,25.50
2019-05-20T14:15:13.096Z,25.70
2019-05-20T14:20:18.720Z,26.20
2019-05-20T14:25:24.103Z,26.30
2019-05-20T14:30:29.541Z,26.40
2019-05-20T14:35:34.943Z,26.20
2019-05-20T14:40:40.409Z,27.10
2019-05-20T14:45:45.890Z,26.70
2019-05-20T14:50:51.365Z,27.10
2019-05-20T14:55:56.843Z,26.70
2019-05-20T15:01:02.818Z,27.00
2019-05-20T15:06:08.234Z,26.60
2019-05-20T15:11:13.679Z,26.60
2019-05-20T15:16:19.887Z,26.60
2019-05-20T15:21:28.950Z,26.90
2019-05-20T15:26:32.583Z,26.70
2019-05-20T15:31:38.118Z,26.40
2019-05-20T15:36:43.754Z,25.90
2019-05-20T15:41:49.422Z,26.10
2019-05-20T15:46:54.893Z,25.50
2019-05-20T15:52:00.286Z,26.10
2019-05-20T15:57:05.653Z,26.30
2019-05-20T16:02:13.142Z,26.30
2019-05-20T16:07:18.566Z,25.40
2019-05-20T16:12:24.477Z,24.80
2019-05-20T16:17:30.019Z,22.50
2019-05-20T16:22:35.648Z,20.80
2019-05-20T16:27:41.179Z,20.50
2019-05-20T16:32:46.715Z,22.30
2019-05-20T16:37:53.111Z,22.90
2019-05-20T16:42:58.539Z,23.70
2019-05-20T16:48:04.316Z,24.00
2019-05-20T16:53:09.848Z,24.10
2019-05-20T16:58:15.391Z,24.60
2019-05-20T17:03:20.794Z,24.40
2019-05-20T17:08:26.270Z,24.00
2019-05-20T17:13:32.269Z,24.20
2019-05-20T17:18:37.832Z,23.80
2019-05-20T17:23:43.617Z,24.20
2019-05-20T17:28:49.893Z,24.10
2019-05-20T17:33:57.538Z,23.90
2019-05-20T17:39:03.087Z,23.40
2019-05-20T17:44:08.508Z,23.40
2019-05-20T17:49:14.306Z,23.60
2019-05-20T17:54:19.741Z,23.10
2019-05-20T17:59:25.665Z,22.90
2019-05-20T18:04:31.065Z,22.60
2019-05-20T18:09:38.062Z,22.60
2019-05-20T18:14:54.696Z,22.10
2019-05-20T18:20:01.279Z,21.80
2019-05-20T18:25:29.469Z,21.70
2019-05-20T18:30:35.071Z,21.10
2019-05-20T18:35:40.850Z,19.70
2019-05-20T18:40:46.447Z,19.00
2019-05-20T18:45:51.879Z,18.50
2019-05-20T18:50:57.314Z,18.30
2019-05-20T18:56:02.784Z,18.20
2019-05-20T19:01:08.285Z,18.10
2019-05-20T19:06:14.087Z,18.10
2019-05-20T19:11:19.709Z,17.80
2019-05-20T19:16:25.471Z,17.60
2019-05-20T19:21:31.280Z,17.60
2019-05-20T19:26:36.864Z,17.60
2019-05-20T19:31:42.504Z,17.60
2019-05-20T19:36:48.736Z,17.60
2019-05-20T19:41:54.254Z,17.70
2019-05-20T19:46:59.797Z,17.50
2019-05-20T19:52:05.267Z,16.70
2019-05-20T19:57:10.744Z,16.40
2019-05-20T20:02:17.836Z,16.20
2019-05-20T20:07:23.419Z,16.00
2019-05-20T20:12:29.088Z,15.90
2019-05-20T20:17:34.602Z,15.90
2019-05-20T20:22:40.330Z,15.80
2019-05-20T20:27:46.108Z,15.80
2019-05-20T20:32:53.812Z,15.70
2019-05-20T20:38:02.297Z,15.40
2019-05-20T20:43:08.063Z,15.40
2019-05-20T20:48:14.080Z,15.30
2019-05-20T20:53:34.355Z,15.20
2019-05-20T20:58:51.267Z,15.10
2019-05-20T21:03:56.854Z,15.00
2019-05-20T21:09:02.445Z,14.90
2019-05-20T21:14:07.975Z,14.80
2019-05-20T21:19:13.503Z,14.80
2019-05-20T21:24:19.005Z,14.80
2019-05-20T21:29:24.969Z,14.70
2019-05-20T21:34:30.383Z,14.60
2019-05-20T21:39:35.980Z,14.60
2019-05-20T21:44:41.593Z,14.40
2019-05-20T21:49:46.991Z,14.40
2019-05-20T21:54:52.441Z,14.50
2019-05-20T21:59:57.867Z,14.50
2019-05-20T22:05:03.361Z,14.80
2019-05-20T22:10:09.195Z,14.90
2019-05-20T22:15:14.831Z,15.20
2019-05-20T22:20:20.474Z,15.20
2019-05-20T22:25:26.425Z,15.20
2019-05-20T22:30:32.071Z,15.20
2019-05-20T22:35:37.560Z,15.10
2019-05-20T22:40:43.120Z,15.10
2019-05-20T22:45:48.527Z,15.10
2019-05-20T22:50:54.025Z,15.10
2019-05-20T22:56:00.965Z,15.20
2019-05-20T23:01:06.417Z,15.20
2019-05-20T23:06:11.981Z,15.10
2019-05-20T23:11:17.438Z,15.10
2019-05-20T23:16:22.826Z,15.10
2019-05-20T23:21:28.398Z,14.90
2019-05-20T23:26:34.064Z,15.00
2019-05-20T23:31:39.468Z,15.00
2019-05-20T23:36:44.991Z,15.10
2019-05-20T23:41:50.954Z,15.10
2019-05-20T23:46:56.483Z,15.00
2019-05-20T23:52:01.959Z,14.80
2019-05-20T23:57:07.611Z,14.70
